createdAt,value
2022-10-21T00:02:00.366Z,8.93
2022-10-21T00:17:08.349Z,8.27
2022-10-21T00:32:14.530Z,8.20
2022-10-21T00:47:31.401Z,9.23
2022-10-21T01:02:35.807Z,8.60
2022-10-21T01:17:56.640Z,8.80
2022-10-21T01:33:27.388Z,8.87
2022-10-21T02:05:50.534Z,11.50
2022-10-21T02:37:32.380Z,11.93
2022-10-21T02:53:19.078Z,12.37
2022-10-21T03:08:44.778Z,10.07
2022-10-21T03:24:28.433Z,11.90
2022-10-21T03:39:37.689Z,11.90
2022-10-21T03:55:11.653Z,11.50
2022-10-21T04:10:51.961Z,11.90
2022-10-21T04:26:39.678Z,12.80
2022-10-21T05:45:09.822Z,14.80
2022-10-21T06:49:37.270Z,15.10
2022-10-21T07:05:00.968Z,17.37
2022-10-21T07:20:08.614Z,14.33
2022-10-21T07:51:17.748Z,14.20
2022-10-21T08:06:22.723Z,12.77
2022-10-21T08:21:28.835Z,12.57
2022-10-21T08:36:34.640Z,13.20
2022-10-21T08:51:43.340Z,14.60
2022-10-21T09:06:53.190Z,14.00
2022-10-21T09:22:33.254Z,13.87
2022-10-21T09:37:36.284Z,13.03
2022-10-21T09:52:41.244Z,14.37
2022-10-21T10:07:46.001Z,13.17
2022-10-21T10:22:59.417Z,14.83
2022-10-21T10:38:04.926Z,12.70
2022-10-21T10:53:12.433Z,12.60
2022-10-21T11:08:40.360Z,13.10
2022-10-21T11:23:57.859Z,12.87
2022-10-21T11:39:05.097Z,12.93
2022-10-21T11:54:22.959Z,12.10
2022-10-21T12:09:41.377Z,12.30
2022-10-21T12:24:50.935Z,13.90
2022-10-21T12:40:12.306Z,12.97
2022-10-21T12:55:27.276Z,12.53
2022-10-21T13:10:32.942Z,11.40
2022-10-21T13:25:42.301Z,13.57
2022-10-21T13:40:52.525Z,12.73
2022-10-21T13:56:07.993Z,12.63
2022-10-21T14:12:45.212Z,11.93
2022-10-21T14:44:29.477Z,12.37
2022-10-21T15:00:29.241Z,12.57
2022-10-21T15:32:30.488Z,14.23
2022-10-21T16:04:22.989Z,13.13
2022-10-21T16:35:23.575Z,16.33
2022-10-21T16:51:17.296Z,17.90
2022-10-21T17:07:01.302Z,17.90
2022-10-21T17:22:33.754Z,21.90
2022-10-21T17:54:00.228Z,21.77
2022-10-21T18:56:40.221Z,28.87
2022-10-21T19:27:43.532Z,26.53
2022-10-21T19:42:53.093Z,25.60
2022-10-21T19:58:03.552Z,25.70
2022-10-21T20:13:20.683Z,23.90
2022-10-21T20:28:59.898Z,23.47
2022-10-21T20:44:14.281Z,24.40
2022-10-21T20:59:44.588Z,23.43
2022-10-21T21:15:35.573Z,23.17
2022-10-21T21:31:05.657Z,22.37
2022-10-21T21:46:30.059Z,22.77
2022-10-21T22:01:44.345Z,22.83
2022-10-21T22:17:01.381Z,20.93
2022-10-21T22:32:17.974Z,19.77
2022-10-21T22:47:53.101Z,19.30
2022-10-21T23:03:07.438Z,18.97
2022-10-21T23:18:24.262Z,17.77
2022-10-21T23:33:47.649Z,17.17
2022-10-21T23:49:04.751Z,15.50
